Time;durP1;ratioP1;P1;durP2;ratioP2;P2;SDS_P1;SDS_P2;PMS_P1;PMS_P2;Temp;Humidity;BMP_temperature;BMP_pressure;BME280_temperature;BME280_humidity;BME280_pressure;Samples;Min_cycle;Max_cycle;Signal;HPM_P1;HPM_P2
2022/07/13 00:00:12;;;;;;;4.88;2.28;;;18.40;91.00;;;;;;5045458;28;20563;-75
2022/07/13 00:02:38;;;;;;;4.38;1.92;;;18.40;91.20;;;;;;5035949;28;20072;-74
2022/07/13 00:05:06;;;;;;;1.70;1.50;;;18.40;91.40;;;;;;5032250;28;20688;-74
2022/07/13 00:07:32;;;;;;;2.72;1.60;;;18.30;91.80;;;;;;5042601;28;20054;-75
2022/07/13 00:09:58;;;;;;;2.80;1.73;;;18.30;91.50;;;;;;5046260;28;20068;-74
2022/07/13 00:12:24;;;;;;;3.85;1.40;;;18.30;91.60;;;;;;5030101;28;20039;-75
2022/07/13 00:14:50;;;;;;;2.05;0.80;;;18.20;91.70;;;;;;5049711;28;20100;-74
2022/07/13 00:17:16;;;;;;;1.50;0.80;;;18.10;91.50;;;;;;5032957;28;20060;-74
2022/07/13 00:19:42;;;;;;;3.05;0.80;;;18.10;91.50;;;;;;5034388;28;20025;-73
2022/07/13 00:22:07;;;;;;;2.63;0.77;;;18.10;91.50;;;;;;5029781;28;20029;-74
2022/07/13 00:24:33;;;;;;;2.85;0.85;;;18.10;91.40;;;;;;5051643;28;20523;-74
2022/07/13 00:26:58;;;;;;;1.15;0.70;;;18.00;91.40;;;;;;5046354;28;20083;-74
2022/07/13 00:29:24;;;;;;;2.58;0.95;;;18.00;91.50;;;;;;5047107;28;20031;-74
2022/07/13 00:31:50;;;;;;;4.15;1.10;;;17.90;91.50;;;;;;5026359;28;20052;-74
2022/07/13 00:34:15;;;;;;;3.38;0.93;;;17.90;91.90;;;;;;5037564;28;20055;-75
2022/07/13 00:36:41;;;;;;;1.35;0.75;;;17.90;92.20;;;;;;5044563;28;20421;-75
2022/07/13 00:39:06;;;;;;;2.05;0.93;;;17.80;92.20;;;;;;5042843;28;20036;-74
2022/07/13 00:41:32;;;;;;;2.92;0.80;;;17.80;92.30;;;;;;5038990;28;20029;-73
2022/07/13 00:44:10;;;;;;;1.90;0.82;;;17.70;92.10;;;;;;5026668;28;20492;-75
2022/07/13 00:46:36;;;;;;;2.45;0.68;;;17.70;92.00;;;;;;5044306;28;20478;-75
2022/07/13 00:49:03;;;;;;;0.98;0.60;;;17.70;92.00;;;;;;5039925;28;20028;-74
2022/07/13 00:51:29;;;;;;;1.25;0.70;;;17.70;92.20;;;;;;5052572;28;20021;-74
2022/07/13 00:53:55;;;;;;;1.90;0.70;;;17.60;91.90;;;;;;5046377;28;20984;-74
2022/07/13 00:56:21;;;;;;;2.22;0.60;;;17.60;91.90;;;;;;5046288;28;20498;-75
2022/07/13 00:58:47;;;;;;;1.20;0.43;;;17.60;92.10;;;;;;5042991;28;20032;-74
2022/07/13 01:01:13;;;;;;;3.17;0.90;;;17.60;91.90;;;;;;5045258;28;20115;-74
2022/07/13 01:03:39;;;;;;;0.73;0.50;;;17.50;91.90;;;;;;5042360;28;20115;-75
2022/07/13 01:06:07;;;;;;;0.70;0.50;;;17.50;92.00;;;;;;5049523;28;20431;-74
2022/07/13 01:08:34;;;;;;;2.40;0.60;;;17.50;92.10;;;;;;5039530;28;20049;-74
2022/07/13 01:11:01;;;;;;;1.92;0.70;;;17.40;92.40;;;;;;5044228;28;20385;-74
2022/07/13 01:13:27;;;;;;;1.63;0.75;;;17.40;92.20;;;;;;5024535;28;20035;-74
2022/07/13 01:15:52;;;;;;;2.00;0.50;;;17.40;92.10;;;;;;5038379;28;20385;-75
2022/07/13 01:18:18;;;;;;;0.90;0.40;;;17.40;92.10;;;;;;5050600;28;20159;-75
2022/07/13 01:20:44;;;;;;;1.40;0.55;;;17.40;92.10;;;;;;5046079;28;20044;-74
2022/07/13 01:23:16;;;;;;;3.60;0.80;;;17.40;92.10;;;;;;5023176;28;20060;-75
2022/07/13 01:25:43;;;;;;;1.25;0.63;;;17.30;92.10;;;;;;5051068;28;20135;-76
2022/07/13 01:28:11;;;;;;;2.08;0.52;;;17.30;92.20;;;;;;5042680;28;20021;-76
2022/07/13 01:30:37;;;;;;;1.48;0.75;;;17.30;92.20;;;;;;5045257;28;20124;-77
2022/07/13 01:33:03;;;;;;;1.70;0.60;;;17.30;92.30;;;;;;5039135;28;20100;-76
2022/07/13 01:35:28;;;;;;;0.63;0.60;;;17.20;92.30;;;;;;5045730;28;20028;-76
2022/07/13 01:37:54;;;;;;;2.67;0.70;;;17.20;92.40;;;;;;5020606;28;20103;-76
2022/07/13 01:40:20;;;;;;;0.77;0.70;;;17.20;92.50;;;;;;5039741;28;20112;-75
2022/07/13 01:42:51;;;;;;;2.85;1.00;;;17.20;92.70;;;;;;5052812;28;20025;-75
2022/07/13 01:45:18;;;;;;;1.55;0.90;;;17.10;93.00;;;;;;5049406;28;20033;-76
2022/07/13 01:47:49;;;;;;;0.93;0.68;;;17.10;93.10;;;;;;5048529;28;20013;-77
2022/07/13 01:50:17;;;;;;;1.08;0.50;;;17.10;93.10;;;;;;5042683;28;20040;-75
2022/07/13 01:52:43;;;;;;;1.83;0.70;;;17.10;93.00;;;;;;5052378;28;20393;-76
2022/07/13 01:55:10;;;;;;;1.05;0.50;;;17.10;93.00;;;;;;5045999;28;20023;-75
2022/07/13 01:57:36;;;;;;;1.52;0.60;;;17.00;92.90;;;;;;5028810;28;20025;-76
2022/07/13 02:00:22;;;;;;;1.20;0.60;;;17.00;92.90;;;;;;5042355;28;20035;-76
2022/07/13 02:02:49;;;;;;;2.28;0.60;;;17.00;92.90;;;;;;5045062;28;20118;-74
2022/07/13 02:05:15;;;;;;;1.77;0.60;;;16.90;92.90;;;;;;5045434;28;20025;-75
2022/07/13 02:07:41;;;;;;;2.05;0.57;;;16.90;92.90;;;;;;5050469;28;20032;-76
2022/07/13 02:10:08;;;;;;;2.17;0.65;;;16.90;93.00;;;;;;5043833;28;20091;-75
2022/07/13 02:12:34;;;;;;;0.93;0.52;;;16.90;93.00;;;;;;5045283;28;20029;-75
2022/07/13 02:15:00;;;;;;;3.42;0.80;;;16.90;93.00;;;;;;5044418;28;20086;-75
2022/07/13 02:17:26;;;;;;;1.58;0.80;;;16.80;93.00;;;;;;5042133;28;20025;-74
2022/07/13 02:19:51;;;;;;;2.13;0.60;;;16.80;93.10;;;;;;5043506;28;20033;-75
2022/07/13 02:22:17;;;;;;;1.00;0.60;;;16.80;93.10;;;;;;5046622;28;20410;-75
2022/07/13 02:24:43;;;;;;;2.60;0.60;;;16.80;93.10;;;;;;5042805;28;20558;-75
2022/07/13 02:27:08;;;;;;;0.90;0.45;;;16.80;93.20;;;;;;5026844;28;20056;-74
2022/07/13 02:29:34;;;;;;;1.10;0.60;;;16.80;93.00;;;;;;5027721;28;20025;-76
2022/07/13 02:32:00;;;;;;;1.35;0.70;;;16.70;93.00;;;;;;5047674;28;20036;-76
2022/07/13 02:34:28;;;;;;;0.80;0.60;;;16.70;93.20;;;;;;5018005;28;20030;-74
2022/07/13 02:36:55;;;;;;;1.50;1.00;;;16.60;93.30;;;;;;5047880;28;20020;-75
2022/07/13 02:39:21;;;;;;;3.20;1.38;;;16.60;93.50;;;;;;5039635;28;20025;-75
2022/07/13 02:41:47;;;;;;;2.63;1.00;;;16.60;93.70;;;;;;5046872;28;20385;-75
2022/07/13 02:44:12;;;;;;;2.80;1.15;;;16.60;93.90;;;;;;5046254;28;20045;-75
2022/07/13 02:46:38;;;;;;;2.25;1.00;;;16.60;94.00;;;;;;5034235;28;20057;-76
2022/07/13 02:49:04;;;;;;;1.83;1.10;;;16.60;94.10;;;;;;5045812;28;20053;-75
2022/07/13 02:51:29;;;;;;;4.97;1.27;;;16.60;94.10;;;;;;5041342;28;20112;-75
2022/07/13 02:53:55;;;;;;;1.70;1.08;;;16.50;94.20;;;;;;5046364;28;20025;-75
2022/07/13 02:56:20;;;;;;;1.92;1.25;;;16.50;94.50;;;;;;5040980;28;20029;-73
2022/07/13 02:58:46;;;;;;;2.38;1.35;;;16.50;94.70;;;;;;5034113;28;20067;-75
2022/07/13 03:01:12;;;;;;;2.72;1.50;;;16.40;94.80;;;;;;5038016;28;20084;-75
2022/07/13 03:03:37;;;;;;;3.15;1.63;;;16.40;94.90;;;;;;5040968;28;20090;-74
2022/07/13 03:06:03;;;;;;;1.83;1.20;;;16.40;95.10;;;;;;5044427;28;20082;-75
2022/07/13 03:08:28;;;;;;;3.00;1.13;;;16.30;95.40;;;;;;5038045;28;20042;-74
2022/07/13 03:10:54;;;;;;;2.30;1.02;;;16.30;95.00;;;;;;5045773;28;20044;-75
2022/07/13 03:13:20;;;;;;;2.67;0.95;;;16.40;94.80;;;;;;5041142;28;20032;-73
2022/07/13 03:15:45;;;;;;;0.80;0.70;;;16.30;94.40;;;;;;5039324;28;20037;-74
2022/07/13 03:18:11;;;;;;;0.93;0.80;;;16.30;94.10;;;;;;5042083;28;20025;-74
2022/07/13 03:20:38;;;;;;;2.20;0.70;;;16.30;94.00;;;;;;5026927;28;20032;-75
2022/07/13 03:23:04;;;;;;;2.83;1.00;;;16.30;93.90;;;;;;5041273;28;20053;-74
2022/07/13 03:25:30;;;;;;;2.95;1.00;;;16.30;93.90;;;;;;5040103;28;20075;-75
2022/07/13 03:27:55;;;;;;;1.30;0.80;;;16.30;93.80;;;;;;5048657;28;20430;-74
2022/07/13 03:30:21;;;;;;;3.28;0.90;;;16.30;93.90;;;;;;5043258;28;20025;-75
2022/07/13 03:32:48;;;;;;;3.58;1.20;;;16.30;94.20;;;;;;5041158;28;20390;-73
2022/07/13 03:35:14;;;;;;;0.80;0.70;;;16.30;94.10;;;;;;5038930;28;20028;-75
2022/07/13 03:37:40;;;;;;;6.70;1.35;;;16.30;94.10;;;;;;5032421;28;20017;-75
2022/07/13 03:40:06;;;;;;;3.08;0.93;;;16.20;94.10;;;;;;5031448;28;20029;-74
2022/07/13 03:42:34;;;;;;;2.55;0.90;;;16.20;94.10;;;;;;5032225;28;20075;-74
2022/07/13 03:45:00;;;;;;;1.23;0.77;;;16.20;94.10;;;;;;5045562;28;20477;-73
2022/07/13 03:47:26;;;;;;;2.53;0.88;;;16.20;94.20;;;;;;5049518;28;20029;-73
2022/07/13 03:49:51;;;;;;;3.75;0.90;;;16.20;94.20;;;;;;5050357;28;20021;-75
2022/07/13 03:52:17;;;;;;;1.58;1.00;;;16.20;94.20;;;;;;5047092;28;20108;-75
2022/07/13 03:54:43;;;;;;;2.55;1.30;;;16.10;94.40;;;;;;5049376;28;20111;-75
2022/07/13 03:57:08;;;;;;;3.25;1.23;;;16.10;94.70;;;;;;5045476;28;20029;-74
2022/07/13 03:59:34;;;;;;;3.42;1.00;;;16.00;95.00;;;;;;5047367;28;20028;-74
2022/07/13 04:02:00;;;;;;;4.05;0.98;;;16.00;95.20;;;;;;5042166;28;20087;-74
2022/07/13 04:04:27;;;;;;;1.30;0.80;;;15.90;95.40;;;;;;5022231;28;20037;-74
2022/07/13 04:06:53;;;;;;;1.73;0.85;;;16.00;95.50;;;;;;5037670;28;20089;-75
2022/07/13 04:09:18;;;;;;;3.65;1.50;;;15.90;95.60;;;;;;5038215;28;20479;-74
2022/07/13 04:11:44;;;;;;;3.17;1.55;;;15.90;95.90;;;;;;5040841;28;20036;-76
2022/07/13 04:14:10;;;;;;;2.30;1.60;;;15.90;96.30;;;;;;5043385;28;20029;-74
2022/07/13 04:16:35;;;;;;;2.55;1.45;;;15.90;96.50;;;;;;5033477;28;20037;-75
2022/07/13 04:19:01;;;;;;;2.05;1.58;;;16.00;96.60;;;;;;5026790;28;20034;-75
2022/07/13 04:21:27;;;;;;;3.72;1.60;;;16.00;96.70;;;;;;5040622;28;20037;-75
2022/07/13 04:23:52;;;;;;;2.38;1.33;;;15.90;96.70;;;;;;5044777;28;20033;-75
2022/07/13 04:26:18;;;;;;;3.40;1.70;;;16.00;96.80;;;;;;5028896;28;20029;-74
2022/07/13 04:28:44;;;;;;;4.50;2.08;;;16.40;96.50;;;;;;5027712;28;20039;-74
2022/07/13 04:31:09;;;;;;;2.90;1.77;;;16.40;96.40;;;;;;5047026;28;20024;-74
2022/07/13 04:33:35;;;;;;;2.33;1.58;;;16.40;96.30;;;;;;5030228;28;20040;-74
2022/07/13 04:36:01;;;;;;;3.33;2.05;;;16.60;96.10;;;;;;5043889;28;20033;-75
2022/07/13 04:38:26;;;;;;;2.17;1.40;;;16.60;96.10;;;;;;5040454;28;20030;-74
2022/07/13 04:40:52;;;;;;;2.40;1.50;;;16.60;96.10;;;;;;5041502;28;20525;-74
2022/07/13 04:43:17;;;;;;;4.43;1.98;;;16.70;96.10;;;;;;5047876;28;20513;-76
2022/07/13 04:45:43;;;;;;;4.68;2.47;;;16.70;96.00;;;;;;5046731;28;20386;-76
2022/07/13 04:48:09;;;;;;;4.53;2.28;;;16.70;96.00;;;;;;5046557;28;20043;-76
2022/07/13 04:50:34;;;;;;;4.90;2.80;;;16.80;96.10;;;;;;5027952;28;20032;-76
2022/07/13 04:53:00;;;;;;;3.28;2.30;;;16.90;95.70;;;;;;5048039;28;20029;-66
2022/07/13 04:55:26;;;;;;;3.35;2.20;;;17.00;95.50;;;;;;5038059;28;20059;-69
2022/07/13 04:57:54;;;;;;;3.08;1.85;;;17.00;95.40;;;;;;5047185;28;20097;-69
2022/07/13 05:00:20;;;;;;;6.57;2.22;;;17.20;95.40;;;;;;5034747;28;20025;-69
2022/07/13 05:02:46;;;;;;;8.38;2.28;;;17.30;95.10;;;;;;5053747;28;20013;-69
2022/07/13 05:05:11;;;;;;;3.33;1.67;;;17.50;94.90;;;;;;5035933;28;20028;-69
2022/07/13 05:07:37;;;;;;;5.32;1.98;;;17.70;94.70;;;;;;5053627;28;20643;-69
2022/07/13 05:10:03;;;;;;;3.53;2.03;;;17.80;94.30;;;;;;5061974;28;20465;-69
2022/07/13 05:12:29;;;;;;;3.60;1.77;;;18.00;94.10;;;;;;5053759;28;20032;-69
2022/07/13 05:14:57;;;;;;;2.97;1.63;;;18.10;93.60;;;;;;5053661;28;20029;-69
2022/07/13 05:17:22;;;;;;;5.53;1.85;;;18.20;93.20;;;;;;5053523;28;20389;-69
2022/07/13 05:19:48;;;;;;;7.03;1.40;;;18.30;92.90;;;;;;5045285;28;20032;-68
2022/07/13 05:22:15;;;;;;;3.63;1.83;;;18.40;92.70;;;;;;5047160;28;20467;-68
2022/07/13 05:24:43;;;;;;;4.07;2.05;;;18.50;92.20;;;;;;5037267;28;20108;-68
2022/07/13 05:27:10;;;;;;;4.80;2.83;;;18.60;92.30;;;;;;5046699;28;20021;-73
2022/07/13 05:29:36;;;;;;;3.45;2.55;;;18.80;92.10;;;;;;5040012;28;20025;-74
2022/07/13 05:32:03;;;;;;;5.30;2.50;;;18.90;91.80;;;;;;5039316;28;20040;-74
2022/07/13 05:34:28;;;;;;;5.38;2.38;;;18.90;91.50;;;;;;5042589;28;20025;-74
2022/07/13 05:36:55;;;;;;;5.68;2.33;;;19.00;91.50;;;;;;5040106;28;20028;-74
2022/07/13 05:39:20;;;;;;;13.93;2.35;;;19.00;91.10;;;;;;5045054;28;20104;-75
2022/07/13 05:41:46;;;;;;;6.63;2.25;;;19.20;91.20;;;;;;5041388;28;20099;-76
2022/07/13 05:44:12;;;;;;;4.40;2.17;;;19.30;91.00;;;;;;5046753;28;20389;-76
2022/07/13 05:46:37;;;;;;;6.00;2.20;;;19.40;90.70;;;;;;5039679;28;20033;-75
2022/07/13 05:49:03;;;;;;;6.10;2.13;;;19.60;90.70;;;;;;5048404;28;20028;-75
2022/07/13 05:51:29;;;;;;;5.45;1.70;;;19.70;90.50;;;;;;5044688;28;20044;-74
2022/07/13 05:53:54;;;;;;;3.25;1.42;;;19.90;90.30;;;;;;5042938;28;20028;-74
2022/07/13 05:56:20;;;;;;;1.95;1.10;;;20.00;90.00;;;;;;5039354;28;20041;-74
2022/07/13 05:58:45;;;;;;;2.30;1.10;;;20.20;89.90;;;;;;5036729;28;20025;-75
2022/07/13 06:01:11;;;;;;;2.75;1.30;;;20.30;89.30;;;;;;5042263;28;20664;-74
2022/07/13 06:03:37;;;;;;;3.65;1.35;;;20.50;88.70;;;;;;5043726;28;20478;-75
2022/07/13 06:06:03;;;;;;;3.03;1.60;;;20.60;88.20;;;;;;5027671;28;20025;-76
2022/07/13 06:08:28;;;;;;;7.07;1.40;;;20.80;87.80;;;;;;5039837;28;20037;-75
2022/07/13 06:10:54;;;;;;;3.47;1.27;;;21.00;87.30;;;;;;5044696;28;20481;-74
2022/07/13 06:13:20;;;;;;;2.40;1.20;;;21.10;86.80;;;;;;5039672;28;21210;-74
2022/07/13 06:15:45;;;;;;;2.33;1.35;;;21.20;86.70;;;;;;5038403;28;20021;-76
2022/07/13 06:18:11;;;;;;;3.13;1.42;;;21.30;86.00;;;;;;5044552;28;20028;-73
2022/07/13 06:20:37;;;;;;;2.30;1.20;;;21.40;85.50;;;;;;5025700;28;20021;-75
2022/07/13 06:23:12;;;;;;;3.55;1.20;;;21.50;85.20;;;;;;5041081;28;20116;-75
2022/07/13 06:25:41;;;;;;;5.45;1.30;;;21.60;84.70;;;;;;5043853;28;20557;-76
2022/07/13 06:28:07;;;;;;;2.55;1.20;;;21.70;84.30;;;;;;5047722;28;20025;-76
2022/07/13 06:30:34;;;;;;;2.33;1.27;;;21.90;84.10;;;;;;5045415;28;20175;-76
2022/07/13 06:32:59;;;;;;;1.70;1.00;;;21.90;84.00;;;;;;5048204;28;20029;-76
2022/07/13 06:35:25;;;;;;;1.33;1.00;;;22.00;83.20;;;;;;5031537;28;20043;-76
2022/07/13 06:37:51;;;;;;;2.30;0.93;;;22.00;82.80;;;;;;5024742;28;20018;-75
2022/07/13 06:40:16;;;;;;;3.83;1.15;;;22.10;83.00;;;;;;5043762;28;20021;-75
2022/07/13 06:42:43;;;;;;;4.43;1.05;;;22.20;82.60;;;;;;5043525;28;20040;-76
2022/07/13 06:45:09;;;;;;;1.40;1.23;;;22.40;82.80;;;;;;5044882;28;20100;-77
2022/07/13 06:47:35;;;;;;;3.55;1.20;;;22.50;82.50;;;;;;5040574;28;20060;-76
2022/07/13 06:50:01;;;;;;;4.65;1.20;;;22.50;81.80;;;;;;5044901;28;20056;-76
2022/07/13 06:52:26;;;;;;;5.90;1.70;;;22.30;81.40;;;;;;5047825;28;20025;-75
2022/07/13 06:54:52;;;;;;;3.15;1.75;;;22.30;81.60;;;;;;5047963;28;20020;-75
2022/07/13 06:57:18;;;;;;;2.67;1.15;;;22.10;82.30;;;;;;5030296;28;20029;-75
2022/07/13 06:59:44;;;;;;;4.75;1.50;;;22.00;83.10;;;;;;5023315;28;20067;-76
2022/07/13 07:02:09;;;;;;;5.10;1.40;;;22.00;83.80;;;;;;5022694;28;20037;-76
2022/07/13 07:04:35;;;;;;;7.50;1.10;;;21.90;84.20;;;;;;5041657;28;20112;-75
2022/07/13 07:07:02;;;;;;;1.80;1.08;;;21.90;84.70;;;;;;5042701;28;20440;-76
2022/07/13 07:09:27;;;;;;;3.38;1.15;;;21.90;85.10;;;;;;5043202;28;20678;-76
2022/07/13 07:11:53;;;;;;;5.13;1.73;;;21.80;85.10;;;;;;5040069;28;20123;-75
2022/07/13 07:14:18;;;;;;;6.00;1.30;;;21.80;85.20;;;;;;5046626;28;20025;-76
2022/07/13 07:16:44;;;;;;;2.10;1.10;;;21.80;85.10;;;;;;5047358;28;20024;-75
2022/07/13 07:19:10;;;;;;;2.58;1.17;;;21.90;85.40;;;;;;5045691;28;20086;-75
2022/07/13 07:21:37;;;;;;;3.10;1.10;;;21.90;85.40;;;;;;5031935;28;20038;-77
2022/07/13 07:24:03;;;;;;;4.10;1.30;;;21.90;85.50;;;;;;5049940;28;20059;-78
2022/07/13 07:26:30;;;;;;;2.88;1.10;;;22.00;85.50;;;;;;5050125;28;20459;-78
2022/07/13 07:28:56;;;;;;;2.30;0.88;;;22.10;85.50;;;;;;5049390;28;20025;-77
2022/07/13 07:31:22;;;;;;;3.35;1.13;;;22.20;85.60;;;;;;5045112;28;20029;-77
2022/07/13 07:33:48;;;;;;;2.30;1.20;;;22.30;85.30;;;;;;5048021;28;20028;-77
2022/07/13 07:36:15;;;;;;;3.47;1.20;;;22.20;85.00;;;;;;5044228;28;20040;-76
2022/07/13 07:38:41;;;;;;;4.30;1.20;;;22.30;85.00;;;;;;5027790;28;20028;-75
2022/07/13 07:41:07;;;;;;;2.40;1.80;;;22.40;85.10;;;;;;5048652;28;20479;-76
2022/07/13 07:43:32;;;;;;;3.92;1.38;;;22.40;84.90;;;;;;5051852;28;20070;-75
2022/07/13 07:45:58;;;;;;;1.50;1.10;;;22.50;84.80;;;;;;5046460;28;20037;-76
2022/07/13 07:48:24;;;;;;;1.95;1.42;;;22.50;84.70;;;;;;5045987;28;20567;-75
2022/07/13 07:50:49;;;;;;;2.88;1.23;;;22.70;84.50;;;;;;5050192;28;20027;-75
2022/07/13 07:53:15;;;;;;;6.53;1.40;;;22.80;84.00;;;;;;5043366;28;20236;-76
2022/07/13 07:55:41;;;;;;;3.25;1.60;;;22.90;82.90;;;;;;5032686;28;20029;-75
2022/07/13 07:58:08;;;;;;;7.10;2.10;;;23.00;83.00;;;;;;5042328;28;20022;-74
2022/07/13 08:00:34;;;;;;;6.10;2.17;;;23.10;82.50;;;;;;5044611;28;20113;-75
2022/07/13 08:03:03;;;;;;;5.00;2.40;;;23.10;82.30;;;;;;5047538;28;20104;-75
2022/07/13 08:05:30;;;;;;;4.70;2.22;;;23.20;82.20;;;;;;5047204;28;20115;-75
2022/07/13 08:07:56;;;;;;;3.28;1.92;;;23.40;82.20;;;;;;5046204;28;20420;-75
2022/07/13 08:10:22;;;;;;;4.10;2.42;;;23.50;81.50;;;;;;5046732;28;20025;-74
2022/07/13 08:12:47;;;;;;;4.47;2.00;;;23.60;81.10;;;;;;5033912;28;20029;-75
2022/07/13 08:15:13;;;;;;;6.22;2.42;;;23.70;80.90;;;;;;5028456;28;20053;-74
2022/07/13 08:17:39;;;;;;;4.95;1.70;;;23.80;80.60;;;;;;5046321;28;20109;-75
2022/07/13 08:20:07;;;;;;;3.95;1.50;;;23.90;80.00;;;;;;5037476;28;20047;-74
2022/07/13 08:22:32;;;;;;;2.42;1.50;;;23.90;79.60;;;;;;5039496;28;20049;-74
2022/07/13 08:24:58;;;;;;;3.42;1.30;;;24.00;79.80;;;;;;5040183;28;21163;-75
2022/07/13 08:27:25;;;;;;;3.30;1.25;;;24.00;79.70;;;;;;5043409;28;20029;-74
2022/07/13 08:29:51;;;;;;;4.70;1.40;;;24.10;79.90;;;;;;5046929;28;20064;-74
2022/07/13 08:32:17;;;;;;;3.47;1.20;;;24.10;79.50;;;;;;5046576;28;20053;-74
2022/07/13 08:40:11;;;;;;;3.70;1.23;;;24.40;78.40;;;;;;5043865;28;20114;-75
2022/07/13 08:42:38;;;;;;;1.55;0.88;;;24.70;78.30;;;;;;5047207;28;20060;-75
2022/07/13 08:45:05;;;;;;;2.47;1.20;;;24.80;77.30;;;;;;5049028;28;20037;-75
2022/07/13 08:47:31;;;;;;;1.98;1.17;;;25.00;76.40;;;;;;5032547;28;20390;-76
2022/07/13 08:50:01;;;;;;;3.33;1.08;;;25.10;75.30;;;;;;5089631;23;20048;-74
2022/07/13 08:52:29;;;;;;;2.70;1.63;;;25.20;75.10;;;;;;5068370;28;20431;-74
2022/07/13 08:54:56;;;;;;;7.22;1.70;;;25.30;74.70;;;;;;5069293;28;20032;-73
2022/07/13 08:57:21;;;;;;;1.83;1.30;;;25.30;73.50;;;;;;5068667;28;20908;-73
2022/07/13 08:59:47;;;;;;;6.80;1.20;;;25.50;73.40;;;;;;5070476;28;20070;-74
2022/07/13 09:02:12;;;;;;;2.10;1.00;;;25.50;73.00;;;;;;5073383;28;20044;-74
2022/07/13 09:08:06;;;;;;;2.42;1.48;;;25.80;71.30;;;;;;5067779;28;20214;-73
2022/07/13 09:10:32;;;;;;;5.07;1.40;;;25.90;71.50;;;;;;5067897;28;20031;-74
2022/07/13 09:12:58;;;;;;;4.38;1.25;;;26.00;71.10;;;;;;5067658;28;20028;-74
2022/07/13 09:15:23;;;;;;;3.22;1.10;;;26.00;71.00;;;;;;5070715;28;20504;-74
2022/07/13 09:17:49;;;;;;;3.60;1.00;;;26.10;71.10;;;;;;5087425;28;20388;-74
2022/07/13 09:20:18;;;;;;;2.38;0.90;;;26.10;70.30;;;;;;5065747;28;20021;-74
2022/07/13 09:22:54;;;;;;;3.47;1.10;;;26.30;70.30;;;;;;5071552;28;20036;-74
2022/07/13 09:25:32;;;;;;;4.82;1.05;;;26.40;69.10;;;;;;5074173;28;20484;-74
2022/07/13 09:28:02;;;;;;;3.00;1.10;;;26.50;68.00;;;;;;5064905;28;20547;-74
2022/07/13 09:30:28;;;;;;;6.03;1.27;;;26.60;68.30;;;;;;5068266;28;20150;-74
2022/07/13 09:32:55;;;;;;;5.78;1.15;;;26.70;68.50;;;;;;5071366;28;20143;-74
2022/07/13 09:35:21;;;;;;;3.55;1.50;;;26.80;68.90;;;;;;5072712;28;20020;-74
2022/07/13 09:37:47;;;;;;;4.35;1.50;;;26.80;68.80;;;;;;5071140;28;20049;-74
2022/07/13 09:40:17;;;;;;;5.38;1.45;;;26.90;68.70;;;;;;5062455;28;20052;-74
2022/07/13 09:42:44;;;;;;;4.10;1.20;;;26.90;69.40;;;;;;5066657;28;20086;-74
2022/07/13 09:47:57;;;;;;;5.80;2.03;;;26.80;68.70;;;;;;5069642;28;20074;-75
2022/07/13 09:50:35;;;;;;;6.82;1.20;;;26.80;69.40;;;;;;5066199;28;20558;-76
2022/07/13 09:53:01;;;;;;;3.00;1.20;;;26.70;69.50;;;;;;5064121;28;20100;-75
2022/07/13 09:55:30;;;;;;;5.03;1.40;;;26.70;68.70;;;;;;5066238;28;20036;-75
2022/07/13 09:57:59;;;;;;;6.45;2.17;;;26.70;68.70;;;;;;5066592;28;20039;-75
2022/07/13 10:00:26;;;;;;;3.53;1.70;;;26.70;68.60;;;;;;5060290;28;20484;-76
2022/07/13 10:02:52;;;;;;;1.77;1.20;;;26.70;68.60;;;;;;5070513;28;20024;-75
2022/07/13 10:05:19;;;;;;;4.13;1.23;;;26.80;68.60;;;;;;5072157;28;20103;-75
2022/07/13 10:07:46;;;;;;;2.28;1.25;;;26.80;68.00;;;;;;5066836;28;20028;-74
2022/07/13 10:10:13;;;;;;;2.50;1.30;;;26.80;67.60;;;;;;5067743;28;20025;-74
2022/07/13 10:12:39;;;;;;;2.92;1.13;;;26.80;67.20;;;;;;5066750;28;20033;-75
2022/07/13 10:15:06;;;;;;;2.22;0.90;;;26.90;66.80;;;;;;5067975;28;20085;-74
2022/07/13 10:17:33;;;;;;;3.10;1.10;;;27.00;66.00;;;;;;5063455;28;20012;-75
2022/07/13 10:20:19;;;;;;;1.17;0.70;;;27.00;65.70;;;;;;5067660;28;20397;-74
2022/07/13 10:22:48;;;;;;;3.65;1.35;;;27.10;65.20;;;;;;5066492;28;20032;-75
2022/07/13 10:25:15;;;;;;;3.20;1.00;;;27.10;65.70;;;;;;5067283;28;20047;-75
2022/07/13 10:27:41;;;;;;;1.73;1.02;;;27.20;65.40;;;;;;5071095;28;20039;-74
2022/07/13 10:30:19;;;;;;;4.10;1.15;;;27.20;64.70;;;;;;5069151;28;20104;-75
2022/07/13 10:32:46;;;;;;;4.32;1.17;;;27.20;63.90;;;;;;5068684;28;20032;-74
2022/07/13 10:35:16;;;;;;;1.15;0.90;;;27.20;63.00;;;;;;5066214;28;20373;-75
2022/07/13 10:38:00;;;;;;;1.40;0.77;;;27.20;62.50;;;;;;5067199;28;20021;-74
2022/07/13 10:40:27;;;;;;;1.92;0.90;;;27.20;61.90;;;;;;5075073;28;20028;-74
2022/07/13 10:42:53;;;;;;;1.88;0.70;;;27.10;62.20;;;;;;5067555;28;20409;-74
2022/07/13 10:45:43;;;;;;;1.42;0.70;;;27.20;62.40;;;;;;5067982;28;20101;-74
2022/07/13 10:48:21;;;;;;;2.88;1.02;;;27.20;62.00;;;;;;5068789;28;20028;-75
2022/07/13 10:50:51;;;;;;;2.35;1.27;;;27.30;62.40;;;;;;5069966;28;20074;-75
2022/07/13 10:53:17;;;;;;;4.20;1.13;;;27.30;62.70;;;;;;5069323;28;20111;-75
2022/07/13 10:55:46;;;;;;;1.73;1.00;;;27.40;62.50;;;;;;5066104;28;20119;-75
2022/07/13 10:58:29;;;;;;;4.10;1.10;;;27.40;62.60;;;;;;5073217;28;20389;-75
2022/07/13 11:00:55;;;;;;;;;;;27.50;62.60;;;;;;5068888;28;20027;-75
2022/07/13 11:03:27;;;;;;;2.42;0.95;;;27.50;62.90;;;;;;5065495;28;19908;-75
2022/07/13 11:06:21;;;;;;;3.85;1.75;;;27.60;63.50;;;;;;5075128;28;20488;-76
2022/07/13 11:09:06;;;;;;;2.38;1.13;;;27.60;63.10;;;;;;5062666;28;20028;-74
2022/07/13 11:11:32;;;;;;;2.72;0.85;;;27.70;62.40;;;;;;5065431;28;23170;-75
2022/07/13 11:13:58;;;;;;;3.17;1.10;;;27.70;62.10;;;;;;5065066;28;20112;-74
2022/07/13 11:16:48;;;;;;;2.70;1.17;;;27.70;62.30;;;;;;5066328;28;20024;-76
2022/07/13 11:19:15;;;;;;;3.88;1.38;;;27.70;61.40;;;;;;5064056;28;20170;-76
2022/07/13 11:22:08;;;;;;;1.85;1.00;;;27.70;61.00;;;;;;5071128;28;20104;-75
2022/07/13 11:27:40;;;;;;;2.25;0.80;;;27.70;60.60;;;;;;5069202;28;20112;-74
2022/07/13 11:30:07;;;;;;;1.27;1.02;;;27.70;60.20;;;;;;5067667;28;20124;-75
2022/07/13 11:32:33;;;;;;;1.65;1.08;;;27.70;60.50;;;;;;5069787;28;20033;-74
2022/07/13 11:34:59;;;;;;;0.98;0.85;;;27.70;60.90;;;;;;5067282;28;20127;-74
2022/07/13 11:37:25;;;;;;;2.05;0.82;;;27.70;61.70;;;;;;5067274;28;20033;-74
2022/07/13 11:39:51;;;;;;;1.15;1.00;;;27.80;61.40;;;;;;5066722;28;20104;-74
2022/07/13 11:42:23;;;;;;;2.00;1.10;;;27.80;61.40;;;;;;5064553;28;20606;-74
2022/07/13 11:44:51;;;;;;;2.65;1.45;;;27.80;61.40;;;;;;5065383;28;20108;-76
2022/07/13 11:47:16;;;;;;;1.58;1.15;;;27.90;61.20;;;;;;5064937;28;20029;-74
2022/07/13 11:49:46;;;;;;;3.10;0.80;;;27.90;60.70;;;;;;5066851;28;20330;-75
2022/07/13 11:52:27;;;;;;;2.95;1.00;;;28.00;59.90;;;;;;5067609;28;20039;-74
2022/07/13 11:55:04;;;;;;;1.60;0.88;;;28.10;59.80;;;;;;5071281;28;20020;-74
2022/07/13 11:57:31;;;;;;;1.92;1.00;;;28.10;60.10;;;;;;5066599;28;20021;-75
2022/07/13 12:00:06;;;;;;;0.95;0.85;;;28.20;58.90;;;;;;5065489;28;20031;-74
2022/07/13 12:02:32;;;;;;;1.25;1.08;;;28.20;56.50;;;;;;5070645;28;20033;-74
2022/07/13 12:04:58;;;;;;;2.80;1.38;;;28.20;56.40;;;;;;5075419;28;20082;-75
2022/07/13 12:07:30;;;;;;;3.45;1.00;;;28.30;56.70;;;;;;5072141;28;20515;-75
2022/07/13 12:10:00;;;;;;;1.90;1.00;;;28.40;57.00;;;;;;5074213;28;20031;-74
2022/07/13 12:12:36;;;;;;;3.28;0.98;;;28.40;56.60;;;;;;5071345;28;20112;-76
2022/07/13 12:15:04;;;;;;;4.85;1.05;;;28.50;56.20;;;;;;5080181;28;20028;-75
2022/07/13 12:17:40;;;;;;;1.48;0.70;;;28.60;55.80;;;;;;5069348;28;20021;-75
2022/07/13 12:20:14;;;;;;;2.88;0.95;;;28.70;55.90;;;;;;5071920;28;20036;-77
2022/07/13 12:22:47;;;;;;;2.97;0.93;;;28.80;55.10;;;;;;5066258;28;20032;-78
2022/07/13 12:25:31;;;;;;;3.70;1.00;;;28.90;54.50;;;;;;5071869;28;20054;-75
2022/07/13 12:28:00;;;;;;;0.90;0.65;;;29.00;54.00;;;;;;5074836;28;20341;-76
2022/07/13 12:30:28;;;;;;;4.18;1.00;;;29.10;53.30;;;;;;5080469;28;20485;-75
2022/07/13 12:33:02;;;;;;;1.38;0.90;;;29.10;53.10;;;;;;5078217;28;20020;-75
2022/07/13 12:35:41;;;;;;;1.80;0.98;;;29.20;53.40;;;;;;5085230;28;20567;-76
2022/07/13 12:38:12;;;;;;;1.40;1.02;;;29.20;53.50;;;;;;5074074;28;20103;-75
2022/07/13 12:40:49;;;;;;;1.67;0.90;;;29.20;53.90;;;;;;5070754;28;20504;-75
2022/07/13 12:43:30;;;;;;;1.00;0.80;;;29.30;53.70;;;;;;5061138;28;20059;-76
2022/07/13 12:46:00;;;;;;;1.20;0.70;;;29.50;53.40;;;;;;5070348;28;20532;-76
2022/07/13 12:48:34;;;;;;;2.45;0.80;;;29.60;53.60;;;;;;5071634;28;20031;-76
2022/07/13 12:51:07;;;;;;;2.95;1.10;;;29.80;53.00;;;;;;5072189;28;20044;-76
2022/07/13 12:53:54;;;;;;;3.58;0.95;;;29.90;52.80;;;;;;5071110;28;20043;-76
2022/07/13 12:56:25;;;;;;;0.93;0.93;;;30.20;52.20;;;;;;5069346;28;20029;-75
2022/07/13 12:58:55;;;;;;;2.13;0.80;;;30.20;51.60;;;;;;5071207;28;20031;-76
2022/07/13 13:01:33;;;;;;;1.80;0.70;;;30.40;51.90;;;;;;5072539;28;20013;-75
2022/07/13 13:04:01;;;;;;;3.30;0.80;;;30.60;50.40;;;;;;5084332;28;20107;-76